Time;durP1;ratioP1;P1;durP2;ratioP2;P2;SDS_P1;SDS_P2;PMS_P1;PMS_P2;Temp;Humidity;BMP_temperature;BMP_pressure;BME280_temperature;BME280_humidity;BME280_pressure;Samples;Min_cycle;Max_cycle;Signal;HPM_P1;HPM_P2
2024/01/04 00:01:48;;;;;;;3.67;1.27;;;7.90;99.90;;;;;;5054132;28;20580;-79
2024/01/04 00:04:16;;;;;;;2.13;0.97;;;8.00;99.90;;;;;;5048543;28;20480;-80
2024/01/04 00:06:44;;;;;;;2.40;1.17;;;7.90;99.90;;;;;;5054286;28;20463;-81
2024/01/04 00:09:11;;;;;;;5.70;1.73;;;7.90;99.90;;;;;;5054766;28;20497;-80
2024/01/04 00:11:37;;;;;;;1.93;1.10;;;7.90;99.90;;;;;;5047196;28;20479;-80
2024/01/04 00:14:06;;;;;;;2.83;1.00;;;7.90;99.90;;;;;;5054602;28;20446;-81
2024/01/04 00:16:35;;;;;;;3.90;1.00;;;8.00;99.90;;;;;;5046932;28;20942;-81
2024/01/04 00:19:02;;;;;;;3.17;1.60;;;7.90;99.90;;;;;;5053514;28;20476;-80
2024/01/04 00:21:29;;;;;;;2.50;1.20;;;8.00;99.90;;;;;;5047081;28;20472;-81
2024/01/04 00:23:57;;;;;;;1.97;1.30;;;8.00;99.90;;;;;;5055870;28;20959;-81
2024/01/04 00:26:24;;;;;;;1.90;1.60;;;8.00;99.90;;;;;;5049636;28;21004;-81
2024/01/04 00:28:52;;;;;;;3.50;1.30;;;8.00;99.90;;;;;;5053828;28;20580;-81
2024/01/04 00:31:19;;;;;;;2.37;1.77;;;8.10;99.90;;;;;;5057105;28;20486;-81
2024/01/04 00:33:47;;;;;;;4.13;1.90;;;8.10;99.90;;;;;;5059639;28;20532;-80
2024/01/04 00:36:14;;;;;;;3.37;1.90;;;8.10;99.90;;;;;;5050311;28;20489;-81
2024/01/04 00:38:41;;;;;;;5.63;2.00;;;8.10;99.90;;;;;;5050186;28;20593;-80
2024/01/04 00:41:08;;;;;;;7.40;2.80;;;8.10;99.90;;;;;;5051790;28;20969;-79
2024/01/04 00:43:37;;;;;;;5.40;2.70;;;8.20;99.90;;;;;;5055482;28;20458;-80
2024/01/04 00:46:07;;;;;;;9.00;2.83;;;8.20;99.90;;;;;;5055943;28;21008;-80
2024/01/04 00:48:34;;;;;;;6.43;3.23;;;8.20;99.90;;;;;;5058389;28;20829;-80
2024/01/04 00:51:02;;;;;;;4.97;2.90;;;8.20;99.90;;;;;;5054529;28;20451;-80
2024/01/04 00:53:28;;;;;;;3.63;2.63;;;8.20;99.90;;;;;;5056538;28;20474;-80
2024/01/04 00:55:55;;;;;;;5.80;3.40;;;8.20;99.90;;;;;;5056758;28;20469;-80
2024/01/04 00:58:24;;;;;;;3.43;2.70;;;8.30;99.90;;;;;;5055902;28;20211;-79
2024/01/04 01:00:51;;;;;;;8.10;3.30;;;8.30;99.90;;;;;;5057560;28;20462;-80
2024/01/04 01:03:18;;;;;;;5.27;3.33;;;8.40;99.90;;;;;;5058396;28;20915;-79
2024/01/04 01:05:47;;;;;;;7.70;4.40;;;8.40;99.90;;;;;;5056656;28;20549;-81
2024/01/04 01:08:15;;;;;;;9.80;5.37;;;8.40;99.90;;;;;;5054681;28;20462;-80
2024/01/04 01:10:42;;;;;;;6.70;3.90;;;8.30;99.90;;;;;;5048978;28;20500;-79
2024/01/04 01:13:09;;;;;;;7.70;4.13;;;8.40;99.90;;;;;;5052724;28;20561;-80
2024/01/04 01:15:39;;;;;;;7.97;4.20;;;8.40;99.90;;;;;;5057343;28;20473;-80
2024/01/04 01:18:06;;;;;;;8.00;5.60;;;8.40;99.90;;;;;;5053052;28;20484;-79
2024/01/04 01:20:33;;;;;;;8.07;5.10;;;8.40;99.90;;;;;;5057054;28;20466;-80
2024/01/04 01:22:59;;;;;;;7.20;4.83;;;8.30;99.90;;;;;;5052654;28;20483;-80
2024/01/04 01:25:27;;;;;;;9.80;5.73;;;8.30;99.90;;;;;;5057654;28;20464;-79
2024/01/04 01:27:56;;;;;;;8.20;4.90;;;8.30;99.90;;;;;;5052807;28;20963;-80
2024/01/04 01:30:23;;;;;;;6.43;4.80;;;8.40;99.90;;;;;;5056476;28;20547;-80
2024/01/04 01:32:50;;;;;;;8.70;5.43;;;8.40;99.90;;;;;;5062482;28;20478;-78
2024/01/04 01:35:16;;;;;;;12.30;5.27;;;8.40;99.90;;;;;;5068393;28;20471;-78
2024/01/04 01:37:43;;;;;;;13.13;5.70;;;8.40;99.90;;;;;;5060778;28;20454;-80
2024/01/04 01:40:11;;;;;;;7.67;5.40;;;8.40;99.90;;;;;;5056605;28;20458;-79
2024/01/04 01:42:39;;;;;;;8.13;5.00;;;8.40;99.90;;;;;;5053644;28;20827;-80
2024/01/04 01:45:07;;;;;;;11.20;4.83;;;8.40;99.90;;;;;;5057345;28;20462;-78
2024/01/04 01:47:34;;;;;;;11.00;5.03;;;8.40;99.90;;;;;;5054901;28;20461;-79
2024/01/04 01:50:01;;;;;;;10.80;4.77;;;8.30;99.90;;;;;;5056436;28;20498;-78
2024/01/04 01:52:27;;;;;;;7.60;5.30;;;8.30;99.90;;;;;;5054057;28;20488;-79
2024/01/04 01:54:54;;;;;;;4.33;3.40;;;8.40;99.90;;;;;;5055938;28;20544;-78
2024/01/04 01:57:22;;;;;;;7.30;4.37;;;8.20;99.90;;;;;;5054119;28;21081;-78
2024/01/04 01:59:51;;;;;;;5.27;3.30;;;8.30;99.90;;;;;;5057336;28;20500;-79
2024/01/04 02:02:20;;;;;;;5.20;3.13;;;8.20;99.90;;;;;;5050140;28;20479;-78
2024/01/04 02:04:47;;;;;;;6.40;3.23;;;8.20;99.90;;;;;;5061261;28;20524;-79
2024/01/04 02:07:19;;;;;;;2.67;2.13;;;8.20;99.90;;;;;;5058096;28;20470;-79
2024/01/04 02:09:46;;;;;;;5.70;2.70;;;8.30;99.90;;;;;;5044189;28;20497;-78
2024/01/04 02:12:15;;;;;;;4.57;2.90;;;8.30;99.90;;;;;;5057669;28;20483;-79
2024/01/04 02:14:42;;;;;;;5.63;2.40;;;8.20;99.90;;;;;;5057538;28;21119;-79
2024/01/04 02:17:12;;;;;;;7.23;3.13;;;8.20;99.90;;;;;;5059322;28;20460;-78
2024/01/04 02:19:40;;;;;;;3.37;2.57;;;8.20;99.90;;;;;;5058472;28;20440;-78
2024/01/04 02:22:07;;;;;;;6.87;3.50;;;8.10;99.90;;;;;;5056456;28;20572;-79
2024/01/04 02:24:35;;;;;;;5.87;3.10;;;8.10;99.90;;;;;;5057301;28;20457;-78
2024/01/04 02:27:02;;;;;;;9.30;3.73;;;8.20;99.90;;;;;;5056133;28;20445;-78
2024/01/04 02:29:29;;;;;;;4.10;3.10;;;8.20;99.90;;;;;;5056525;28;20500;-77
2024/01/04 02:31:55;;;;;;;4.77;3.73;;;8.10;99.90;;;;;;5056769;28;20500;-79
2024/01/04 02:34:22;;;;;;;6.13;3.40;;;8.20;99.90;;;;;;5057809;28;21094;-79
2024/01/04 02:36:49;;;;;;;6.60;3.20;;;8.20;99.90;;;;;;5056629;28;20849;-78
2024/01/04 02:39:16;;;;;;;6.50;3.57;;;8.20;99.90;;;;;;5056985;28;20652;-78
2024/01/04 02:41:44;;;;;;;6.47;4.47;;;8.20;99.90;;;;;;5053203;28;20506;-78
2024/01/04 02:44:11;;;;;;;4.53;3.07;;;8.20;99.90;;;;;;5053156;28;20552;-79
2024/01/04 02:46:38;;;;;;;6.63;3.80;;;8.20;99.90;;;;;;5055157;28;20464;-79
2024/01/04 02:49:05;;;;;;;4.27;3.10;;;8.20;99.90;;;;;;5053190;28;20455;-77
2024/01/04 02:51:31;;;;;;;3.90;2.90;;;8.10;99.90;;;;;;5055196;28;20492;-77
2024/01/04 02:53:58;;;;;;;4.67;4.17;;;8.20;99.90;;;;;;5052310;28;20517;-78
2024/01/04 02:56:25;;;;;;;5.47;3.87;;;8.20;99.90;;;;;;5058082;28;20537;-79
2024/01/04 02:58:54;;;;;;;9.00;4.80;;;8.20;99.90;;;;;;5056935;28;20459;-79
2024/01/04 03:01:20;;;;;;;6.80;4.60;;;8.20;99.90;;;;;;5055013;28;20473;-78
2024/01/04 03:03:51;;;;;;;4.50;3.60;;;8.20;99.90;;;;;;5055981;28;20457;-78
2024/01/04 03:06:22;;;;;;;5.23;3.93;;;8.20;99.90;;;;;;5055850;28;20544;-80
2024/01/04 03:08:49;;;;;;;6.13;4.90;;;8.20;99.90;;;;;;5045732;28;20457;-79
2024/01/04 03:11:16;;;;;;;7.57;4.13;;;8.20;99.90;;;;;;5055729;28;20497;-79
2024/01/04 03:13:42;;;;;;;5.30;4.53;;;8.20;99.90;;;;;;5050169;28;20463;-80
2024/01/04 03:16:11;;;;;;;6.70;4.70;;;8.10;99.90;;;;;;5053138;28;20449;-81
2024/01/04 03:18:37;;;;;;;10.47;5.47;;;8.10;99.90;;;;;;5046732;28;20953;-79
2024/01/04 03:21:06;;;;;;;8.00;5.13;;;8.10;99.90;;;;;;5055292;28;21020;-80
2024/01/04 03:23:32;;;;;;;7.87;5.03;;;8.10;99.90;;;;;;5050181;28;20448;-81
2024/01/04 03:25:59;;;;;;;7.40;4.20;;;8.10;99.90;;;;;;5055970;28;20540;-80
2024/01/04 03:28:26;;;;;;;10.70;6.43;;;8.20;99.90;;;;;;5049439;28;20462;-80
2024/01/04 03:30:53;;;;;;;11.17;6.67;;;8.20;99.90;;;;;;5056074;28;20543;-79
2024/01/04 03:33:21;;;;;;;10.37;8.23;;;8.20;99.90;;;;;;5051736;28;20826;-80
2024/01/04 03:35:48;;;;;;;9.83;6.53;;;8.20;99.90;;;;;;5056654;28;20494;-79
2024/01/04 03:38:15;;;;;;;11.03;6.77;;;8.20;99.90;;;;;;5053867;28;20525;-80
2024/01/04 03:40:42;;;;;;;10.00;7.70;;;8.20;99.90;;;;;;5057700;28;20997;-80
2024/01/04 03:43:08;;;;;;;8.20;6.10;;;8.20;99.90;;;;;;5053601;28;20496;-80
2024/01/04 03:45:35;;;;;;;16.93;7.00;;;8.10;99.90;;;;;;5058048;28;20473;-81
2024/01/04 03:48:02;;;;;;;7.37;5.43;;;8.10;99.90;;;;;;5054341;28;20525;-80
2024/01/04 03:50:30;;;;;;;8.90;5.17;;;8.10;99.90;;;;;;5055479;28;20487;-80
2024/01/04 03:52:57;;;;;;;5.97;4.27;;;8.10;99.90;;;;;;5049714;28;20474;-81
2024/01/04 03:55:24;;;;;;;6.20;4.50;;;8.10;99.90;;;;;;5048594;28;20516;-82
2024/01/04 03:57:51;;;;;;;7.77;2.90;;;8.10;99.90;;;;;;5047378;28;20545;-81
2024/01/04 04:00:18;;;;;;;5.00;2.47;;;8.10;99.90;;;;;;5056114;28;20457;-81
2024/01/04 04:02:45;;;;;;;4.10;2.10;;;8.10;99.90;;;;;;5054797;28;20556;-80
2024/01/04 04:05:12;;;;;;;4.67;2.43;;;8.10;99.90;;;;;;5060259;28;20885;-81
2024/01/04 04:07:40;;;;;;;3.10;2.00;;;8.00;99.90;;;;;;5060882;28;20488;-81
2024/01/04 04:10:08;;;;;;;3.17;1.97;;;7.90;99.90;;;;;;5062484;28;20580;-80
2024/01/04 04:12:35;;;;;;;4.70;1.60;;;7.90;99.90;;;;;;5061773;28;20487;-80
2024/01/04 04:15:02;;;;;;;3.77;2.37;;;7.90;99.90;;;;;;5062438;28;20969;-80
2024/01/04 04:17:29;;;;;;;3.83;1.43;;;7.80;99.90;;;;;;5062557;28;20587;-80
2024/01/04 04:19:56;;;;;;;2.93;2.00;;;7.70;99.90;;;;;;5062814;28;20490;-80
2024/01/04 04:22:23;;;;;;;3.20;2.07;;;7.80;99.90;;;;;;5062607;28;21073;-80
2024/01/04 04:24:51;;;;;;;4.00;1.97;;;7.70;99.90;;;;;;5062375;28;20457;-80
2024/01/04 04:27:18;;;;;;;2.63;1.30;;;7.70;99.90;;;;;;5063347;28;20488;-80
2024/01/04 04:29:45;;;;;;;4.90;1.77;;;7.70;99.90;;;;;;5061779;28;20451;-79
2024/01/04 04:32:12;;;;;;;4.87;2.27;;;7.70;99.90;;;;;;5062156;28;20534;-80
2024/01/04 04:34:39;;;;;;;4.07;1.63;;;7.70;99.90;;;;;;5061400;28;20469;-80
2024/01/04 04:37:06;;;;;;;4.57;1.80;;;7.70;99.90;;;;;;5061972;28;20941;-80
2024/01/04 04:39:32;;;;;;;2.00;1.50;;;7.80;99.90;;;;;;5060422;28;20452;-80
2024/01/04 04:42:01;;;;;;;4.40;1.40;;;7.70;99.90;;;;;;5061385;28;20866;-80
2024/01/04 04:44:27;;;;;;;3.50;1.70;;;7.70;99.90;;;;;;5060032;28;20524;-80
2024/01/04 04:46:54;;;;;;;2.73;1.70;;;7.70;99.90;;;;;;5060482;28;20521;-80
2024/01/04 04:49:21;;;;;;;7.30;2.73;;;7.70;99.90;;;;;;5057110;28;20457;-80
2024/01/04 04:51:49;;;;;;;3.50;2.23;;;7.70;99.90;;;;;;5060603;28;20496;-80
2024/01/04 04:54:16;;;;;;;2.33;1.60;;;7.70;99.90;;;;;;5059464;28;20454;-80
2024/01/04 04:56:44;;;;;;;4.47;2.77;;;7.60;99.90;;;;;;5060359;28;20453;-80
2024/01/04 04:59:13;;;;;;;4.77;2.00;;;7.50;99.90;;;;;;5063354;28;20464;-80
2024/01/04 05:01:41;;;;;;;3.10;2.00;;;7.50;99.90;;;;;;5055583;28;20500;-79
2024/01/04 05:04:09;;;;;;;5.03;1.93;;;7.60;99.90;;;;;;5065033;28;20459;-78
2024/01/04 05:06:36;;;;;;;4.60;1.70;;;7.60;99.90;;;;;;5063026;28;20464;-79
2024/01/04 05:09:03;;;;;;;2.50;1.57;;;7.60;99.90;;;;;;5060951;28;20460;-80
2024/01/04 05:11:30;;;;;;;10.20;2.20;;;7.60;99.90;;;;;;5066713;28;20561;-78
2024/01/04 05:13:56;;;;;;;4.50;1.97;;;7.60;99.90;;;;;;5063733;28;20988;-79
2024/01/04 05:16:25;;;;;;;3.30;2.00;;;7.60;99.90;;;;;;5066044;28;20516;-78
2024/01/04 05:18:51;;;;;;;3.00;1.90;;;7.70;99.90;;;;;;5065023;28;20458;-78
2024/01/04 05:21:18;;;;;;;3.57;1.80;;;7.60;99.90;;;;;;5066382;28;20523;-79
2024/01/04 05:23:45;;;;;;;2.57;1.87;;;7.60;99.90;;;;;;5064374;28;20516;-79
2024/01/04 05:26:20;;;;;;;6.97;2.70;;;7.70;99.90;;;;;;5051315;28;20460;-80
2024/01/04 05:28:47;;;;;;;10.17;3.53;;;7.70;99.90;;;;;;5064151;28;20520;-78
2024/01/04 05:31:15;;;;;;;5.83;2.70;;;7.70;99.90;;;;;;5066926;28;20500;-79
2024/01/04 05:33:43;;;;;;;9.00;3.30;;;7.70;99.90;;;;;;5067882;28;20498;-78
2024/01/04 05:36:10;;;;;;;4.70;2.90;;;7.60;99.90;;;;;;5067737;28;20461;-79
2024/01/04 05:38:36;;;;;;;3.90;2.50;;;7.70;99.90;;;;;;5068103;28;20524;-78
2024/01/04 05:41:04;;;;;;;5.43;3.20;;;7.60;99.90;;;;;;5067439;28;20452;-78
2024/01/04 05:43:33;;;;;;;4.30;1.80;;;7.60;99.90;;;;;;5067462;28;20453;-79
2024/01/04 05:45:59;;;;;;;8.20;2.60;;;7.70;99.90;;;;;;5068662;28;20462;-78
2024/01/04 05:48:25;;;;;;;2.87;2.00;;;7.70;99.90;;;;;;5067218;28;20460;-79
2024/01/04 05:50:53;;;;;;;3.40;1.23;;;7.70;99.90;;;;;;5067527;28;20313;-79
2024/01/04 05:53:20;;;;;;;2.00;1.60;;;7.70;99.90;;;;;;5067300;28;20464;-78
2024/01/04 05:55:47;;;;;;;15.07;9.10;;;7.60;99.90;;;;;;5067357;28;20461;-79
2024/01/04 05:58:14;;;;;;;13.37;5.20;;;7.60;99.90;;;;;;5067461;28;20527;-79
2024/01/04 06:00:41;;;;;;;6.10;2.67;;;7.60;99.90;;;;;;5058041;28;20537;-78
2024/01/04 06:03:07;;;;;;;3.83;2.10;;;7.70;99.90;;;;;;5065568;28;20986;-79
2024/01/04 06:05:34;;;;;;;3.43;1.77;;;7.70;99.90;;;;;;5061858;28;20533;-78
2024/01/04 06:08:02;;;;;;;2.33;1.67;;;7.70;99.90;;;;;;5057960;28;20444;-80
2024/01/04 06:10:29;;;;;;;5.70;1.73;;;7.70;99.90;;;;;;5058273;28;20495;-80
2024/01/04 06:12:56;;;;;;;3.30;2.37;;;7.70;99.90;;;;;;5057798;28;20469;-80
2024/01/04 06:15:23;;;;;;;3.83;2.07;;;7.70;99.90;;;;;;5057357;28;20453;-79
2024/01/04 06:17:50;;;;;;;4.10;2.20;;;7.70;99.90;;;;;;5057597;28;20460;-80
2024/01/04 06:20:16;;;;;;;2.77;1.90;;;7.70;99.90;;;;;;5055933;28;20486;-78
2024/01/04 06:22:43;;;;;;;8.30;2.63;;;7.60;99.90;;;;;;5054974;28;20492;-78
2024/01/04 06:25:11;;;;;;;3.13;1.70;;;7.70;99.90;;;;;;5054146;28;20539;-79
2024/01/04 06:27:38;;;;;;;4.20;2.40;;;7.60;99.90;;;;;;5054919;28;20838;-79
2024/01/04 06:30:07;;;;;;;3.27;2.30;;;7.60;99.90;;;;;;5054424;28;20456;-78
2024/01/04 06:32:33;;;;;;;5.73;2.80;;;7.60;99.90;;;;;;5054983;28;20497;-78
2024/01/04 06:35:00;;;;;;;4.37;3.03;;;7.60;99.90;;;;;;5054517;28;20452;-78
2024/01/04 06:37:29;;;;;;;5.30;2.90;;;7.60;99.90;;;;;;5054295;28;20454;-79
2024/01/04 06:39:56;;;;;;;5.13;2.63;;;7.60;99.90;;;;;;5055744;28;20531;-79
2024/01/04 06:42:24;;;;;;;3.40;3.10;;;7.60;99.90;;;;;;5056799;28;20544;-78
2024/01/04 06:44:51;;;;;;;6.33;2.73;;;7.70;99.90;;;;;;5057076;28;20910;-78
2024/01/04 06:47:17;;;;;;;3.07;2.23;;;7.20;99.90;;;;;;5056197;28;20460;-79
2024/01/04 06:49:44;;;;;;;3.27;2.13;;;7.70;99.90;;;;;;5054684;28;20463;-78
2024/01/04 06:52:11;;;;;;;4.50;2.17;;;7.70;99.90;;;;;;5054934;28;20498;-79
2024/01/04 06:54:38;;;;;;;3.73;2.10;;;7.70;99.90;;;;;;5054960;28;20487;-78
2024/01/04 06:57:06;;;;;;;3.33;1.93;;;7.70;99.90;;;;;;5048504;28;20463;-79
2024/01/04 06:59:34;;;;;;;3.73;1.53;;;7.60;99.90;;;;;;5054836;28;20462;-78
2024/01/04 07:02:01;;;;;;;3.80;2.03;;;7.70;99.90;;;;;;5054753;28;20472;-79
2024/01/04 07:04:28;;;;;;;3.10;2.20;;;7.70;99.90;;;;;;5062156;28;20458;-78
2024/01/04 07:06:54;;;;;;;3.50;2.47;;;7.70;99.90;;;;;;5067120;28;20883;-79
2024/01/04 07:09:21;;;;;;;4.33;2.30;;;7.70;99.90;;;;;;5066178;28;20522;-78
2024/01/04 07:11:48;;;;;;;6.10;2.80;;;7.80;99.90;;;;;;5066641;28;20557;-78
2024/01/04 07:14:15;;;;;;;6.40;3.83;;;7.80;99.90;;;;;;5066458;28;20533;-78
2024/01/04 07:16:47;;;;;;;9.10;4.30;;;7.90;99.90;;;;;;5055402;28;20458;-79
2024/01/04 07:19:13;;;;;;;6.53;4.57;;;7.90;99.90;;;;;;5055044;28;20901;-78
2024/01/04 07:21:41;;;;;;;6.73;4.30;;;7.90;99.90;;;;;;5050428;28;20509;-79
2024/01/04 07:24:07;;;;;;;12.83;4.53;;;7.90;99.90;;;;;;5055841;28;20461;-79
2024/01/04 07:26:34;;;;;;;5.30;3.57;;;7.90;99.90;;;;;;5052004;28;20828;-78
2024/01/04 07:29:01;;;;;;;6.50;5.47;;;7.90;99.90;;;;;;5048446;28;20490;-78
2024/01/04 07:31:28;;;;;;;9.23;7.23;;;7.90;99.90;;;;;;5048196;28;20520;-78
2024/01/04 07:33:56;;;;;;;12.40;8.40;;;7.90;99.90;;;;;;5043347;28;20460;-78
2024/01/04 07:36:23;;;;;;;13.50;8.73;;;7.90;99.90;;;;;;5043251;28;20455;-78
2024/01/04 07:38:50;;;;;;;11.23;9.00;;;7.90;99.90;;;;;;5052867;28;20469;-78
2024/01/04 07:41:17;;;;;;;12.93;9.53;;;7.90;99.90;;;;;;5053743;28;20544;-78
2024/01/04 07:43:44;;;;;;;13.70;10.07;;;7.90;99.90;;;;;;5049543;28;20453;-79
2024/01/04 07:46:11;;;;;;;14.10;9.77;;;8.00;99.90;;;;;;5053561;28;20471;-78
2024/01/04 07:48:37;;;;;;;9.30;8.20;;;8.00;99.90;;;;;;5053403;28;20451;-78
2024/01/04 07:51:09;;;;;;;13.90;9.77;;;8.00;99.90;;;;;;5053636;28;20485;-78
2024/01/04 07:53:36;;;;;;;12.60;9.73;;;8.10;99.90;;;;;;5054274;28;20945;-79
2024/01/04 07:56:04;;;;;;;9.93;7.97;;;8.10;99.90;;;;;;5052271;28;20459;-78
2024/01/04 07:58:34;;;;;;;9.47;8.50;;;8.20;99.90;;;;;;5050821;28;20858;-78
2024/01/04 08:01:00;;;;;;;9.70;7.50;;;8.20;99.90;;;;;;5050438;28;20957;-78
2024/01/04 08:03:28;;;;;;;9.20;7.23;;;8.20;99.90;;;;;;5052129;28;20458;-77
2024/01/04 08:05:55;;;;;;;10.87;7.20;;;8.20;99.90;;;;;;5051639;28;20458;-78
2024/01/04 08:08:23;;;;;;;8.23;6.20;;;8.30;99.90;;;;;;5053937;28;20453;-79
2024/01/04 08:10:50;;;;;;;7.10;5.60;;;8.30;99.90;;;;;;5051458;28;20459;-78
2024/01/04 08:13:16;;;;;;;7.67;6.60;;;8.30;99.90;;;;;;5051845;28;20840;-78
2024/01/04 08:15:43;;;;;;;9.23;6.87;;;8.30;99.90;;;;;;5052834;28;20471;-79
2024/01/04 08:18:10;;;;;;;9.00;7.23;;;8.30;99.90;;;;;;5054440;28;20460;-79
2024/01/04 08:20:37;;;;;;;8.40;6.57;;;8.30;99.90;;;;;;5053502;28;20542;-76
2024/01/04 08:23:08;;;;;;;9.60;5.40;;;8.20;99.90;;;;;;5055998;28;20504;-80
2024/01/04 08:25:36;;;;;;;8.30;5.60;;;8.20;99.90;;;;;;5057303;28;20498;-79
2024/01/04 08:28:03;;;;;;;5.73;4.60;;;8.20;99.90;;;;;;5067005;28;20517;-78
2024/01/04 08:30:31;;;;;;;5.37;4.87;;;8.20;99.90;;;;;;5066773;28;20492;-79
2024/01/04 08:32:58;;;;;;;6.07;4.30;;;8.20;99.90;;;;;;5062930;28;20489;-80
2024/01/04 08:35:29;;;;;;;4.53;3.87;;;8.10;99.90;;;;;;5054462;28;20479;-78
2024/01/04 08:37:56;;;;;;;3.20;2.90;;;8.10;99.90;;;;;;5058623;28;20475;-77
2024/01/04 08:40:23;;;;;;;3.50;3.00;;;8.10;99.90;;;;;;5051184;28;20932;-78
2024/01/04 08:42:51;;;;;;;5.57;2.83;;;8.10;99.90;;;;;;5055806;28;20469;-79
2024/01/04 08:45:18;;;;;;;4.33;3.60;;;8.10;99.90;;;;;;5056007;28;20452;-79
2024/01/04 08:47:45;;;;;;;3.50;2.63;;;8.10;99.90;;;;;;5054355;28;20462;-78
2024/01/04 08:50:12;;;;;;;4.03;2.50;;;8.10;99.90;;;;;;5052737;28;20467;-79
2024/01/04 08:52:39;;;;;;;3.30;2.80;;;8.10;99.90;;;;;;5046492;28;20605;-80
2024/01/04 08:55:07;;;;;;;3.93;2.80;;;8.10;99.90;;;;;;5055175;28;20460;-79
2024/01/04 08:57:36;;;;;;;5.57;3.33;;;8.00;99.90;;;;;;5051166;28;20494;-79
2024/01/04 09:00:05;;;;;;;6.60;6.00;;;8.10;99.90;;;;;;5051536;28;20457;-79
2024/01/04 09:02:32;;;;;;;3.37;3.07;;;8.00;99.90;;;;;;5051586;28;20490;-79
2024/01/04 09:04:59;;;;;;;5.00;3.60;;;8.10;99.90;;;;;;5044906;28;20511;-79
2024/01/04 09:07:26;;;;;;;8.90;5.90;;;8.10;99.90;;;;;;5052736;28;20513;-79
2024/01/04 09:09:53;;;;;;;9.27;6.60;;;8.20;99.90;;;;;;5049884;28;20512;-79
2024/01/04 09:12:23;;;;;;;6.30;5.30;;;8.20;99.90;;;;;;5053616;28;20510;-79
2024/01/04 09:14:50;;;;;;;7.43;6.03;;;8.30;99.90;;;;;;5045673;28;20559;-79
2024/01/04 09:17:18;;;;;;;10.30;6.30;;;8.30;99.90;;;;;;5044505;28;20438;-79
2024/01/04 09:19:47;;;;;;;7.57;6.23;;;8.30;99.90;;;;;;5056282;28;20470;-79
2024/01/04 09:22:13;;;;;;;6.33;5.30;;;8.30;99.90;;;;;;5057591;28;20479;-79
2024/01/04 09:24:40;;;;;;;12.00;5.97;;;8.40;99.90;;;;;;5057016;28;20457;-80
2024/01/04 09:27:07;;;;;;;9.00;6.03;;;8.50;99.90;;;;;;5049763;28;20458;-80
2024/01/04 09:29:37;;;;;;;5.40;4.63;;;8.50;99.90;;;;;;5046571;28;20489;-78
2024/01/04 09:32:04;;;;;;;6.10;4.67;;;8.50;99.90;;;;;;5053216;28;20583;-79
2024/01/04 09:34:33;;;;;;;4.90;3.73;;;8.60;99.90;;;;;;5059347;28;20538;-79
2024/01/04 09:37:00;;;;;;;7.80;4.70;;;8.50;99.90;;;;;;5054643;28;20894;-79
2024/01/04 09:39:27;;;;;;;6.07;4.60;;;8.50;99.90;;;;;;5056889;28;20461;-79
2024/01/04 09:41:56;;;;;;;8.60;5.23;;;8.60;99.90;;;;;;5056209;28;20470;-77
2024/01/04 09:44:24;;;;;;;6.10;5.10;;;8.60;99.90;;;;;;5058181;28;20450;-77
2024/01/04 09:46:54;;;;;;;8.23;5.93;;;8.50;99.90;;;;;;5058162;28;20895;-79
2024/01/04 09:49:21;;;;;;;6.43;5.70;;;8.50;99.90;;;;;;5059976;28;20994;-78
2024/01/04 09:51:49;;;;;;;11.50;7.23;;;8.60;99.90;;;;;;5058180;28;20595;-77
2024/01/04 09:54:20;;;;;;;7.73;6.90;;;8.70;99.90;;;;;;5059407;28;20470;-79
2024/01/04 09:56:49;;;;;;;9.20;6.90;;;8.80;99.90;;;;;;5056728;28;20537;-78
2024/01/04 09:59:16;;;;;;;8.57;7.40;;;8.90;99.90;;;;;;5058916;28;21039;-78
2024/01/04 10:01:43;;;;;;;13.30;8.00;;;8.90;99.90;;;;;;5055665;28;20565;-78
2024/01/04 10:04:12;;;;;;;12.93;8.10;;;8.90;99.90;;;;;;5054270;28;20462;-76
2024/01/04 10:06:41;;;;;;;13.10;8.70;;;8.90;99.90;;;;;;5050789;28;20458;-78
2024/01/04 10:09:16;;;;;;;9.23;7.27;;;8.80;99.90;;;;;;5056754;28;21014;-79
2024/01/04 10:11:55;;;;;;;11.10;7.90;;;8.90;99.90;;;;;;5049723;28;20565;-76
2024/01/04 10:14:23;;;;;;;14.00;8.80;;;8.90;99.90;;;;;;5055648;28;20450;-78
2024/01/04 10:16:50;;;;;;;10.90;9.47;;;8.90;99.90;;;;;;5051291;28;20550;-78
2024/01/04 10:19:17;;;;;;;11.67;8.17;;;8.70;99.90;;;;;;5053953;28;20545;-77
2024/01/04 10:21:44;;;;;;;14.23;8.40;;;8.70;99.90;;;;;;5051169;28;20563;-78
2024/01/04 10:24:15;;;;;;;13.57;9.07;;;8.70;99.90;;;;;;5054696;28;20464;-77
2024/01/04 10:26:42;;;;;;;11.63;9.10;;;8.70;99.90;;;;;;5054228;28;20493;-78
2024/01/04 10:29:09;;;;;;;13.13;8.20;;;8.70;99.90;;;;;;5054097;28;20460;-76
2024/01/04 10:31:36;;;;;;;10.63;8.30;;;8.60;99.90;;;;;;5049945;28;20503;-79
2024/01/04 10:34:03;;;;;;;9.30;7.33;;;8.70;99.90;;;;;;5052329;28;20476;-76
2024/01/04 10:36:32;;;;;;;10.07;6.67;;;8.80;99.90;;;;;;5052269;28;20477;-77
2024/01/04 10:39:00;;;;;;;10.40;6.60;;;8.80;99.90;;;;;;5044779;28;20546;-77
2024/01/04 10:41:29;;;;;;;12.43;6.60;;;8.80;99.90;;;;;;5044864;28;20507;-78
2024/01/04 10:44:06;;;;;;;9.30;5.43;;;8.70;99.90;;;;;;5041888;28;20840;-77
2024/01/04 10:46:35;;;;;;;10.20;5.50;;;8.70;99.90;;;;;;5043765;28;20568;-78
2024/01/04 10:49:02;;;;;;;8.40;5.70;;;8.70;99.90;;;;;;5051559;28;20678;-77
2024/01/04 10:51:31;;;;;;;9.03;5.80;;;8.70;99.90;;;;;;5049092;28;20478;-76
2024/01/04 10:54:00;;;;;;;7.20;6.50;;;8.60;99.90;;;;;;5047377;28;21116;-78
2024/01/04 10:56:29;;;;;;;6.53;5.87;;;8.70;99.90;;;;;;5056706;28;20455;-77
2024/01/04 10:58:57;;;;;;;8.33;6.47;;;8.70;99.90;;;;;;5054133;28;20451;-77
2024/01/04 11:01:25;;;;;;;8.50;6.70;;;8.80;99.90;;;;;;5059415;28;20564;-76
2024/01/04 11:03:55;;;;;;;9.67;6.90;;;9.00;99.90;;;;;;5056453;28;20513;-77
2024/01/04 11:06:23;;;;;;;10.30;6.07;;;9.00;99.90;;;;;;5053468;28;20959;-77
2024/01/04 11:08:50;;;;;;;6.77;4.83;;;8.90;99.90;;;;;;5052083;28;20455;-79
2024/01/04 11:11:18;;;;;;;9.23;6.20;;;8.90;99.90;;;;;;5048333;28;20510;-77
2024/01/04 11:13:46;;;;;;;7.00;5.93;;;8.80;99.90;;;;;;5051144;28;20489;-78
2024/01/04 11:16:27;;;;;;;6.40;4.70;;;8.80;99.90;;;;;;5055928;28;20546;-77
2024/01/04 11:19:04;;;;;;;5.20;4.63;;;8.70;99.90;;;;;;5053024;28;20472;-78
2024/01/04 11:21:43;;;;;;;8.40;5.30;;;8.70;99.90;;;;;;5058584;28;20854;-77
2024/01/04 11:24:27;;;;;;;7.47;5.07;;;8.60;99.90;;;;;;5060267;28;20465;-77
2024/01/04 11:26:57;;;;;;;5.90;4.30;;;8.50;99.90;;;;;;5058261;28;20472;-77
2024/01/04 11:29:27;;;;;;;5.27;4.27;;;8.60;99.90;;;;;;5051021;28;20459;-78
2024/01/04 11:31:58;;;;;;;6.40;4.50;;;8.70;99.90;;;;;;5051349;28;20484;-78
2024/01/04 11:34:26;;;;;;;6.67;4.67;;;8.70;99.90;;;;;;5058882;28;21039;-78
2024/01/04 11:37:09;;;;;;;9.00;5.37;;;8.70;99.90;;;;;;5052813;28;20850;-77
2024/01/04 11:39:50;;;;;;;18.07;9.77;;;8.80;99.90;;;;;;5051641;28;20464;-78
2024/01/04 11:42:19;;;;;;;8.17;7.37;;;8.80;99.90;;;;;;5052857;28;20477;-79
2024/01/04 11:44:50;;;;;;;12.73;9.50;;;8.90;99.90;;;;;;5051790;28;20459;-78
2024/01/04 11:47:25;;;;;;;13.23;7.10;;;9.00;99.90;;;;;;5043895;28;20812;-78
2024/01/04 11:49:58;;;;;;;9.13;6.90;;;9.00;99.90;;;;;;5051418;28;20541;-79
2024/01/04 11:52:27;;;;;;;9.80;5.87;;;9.00;99.90;;;;;;5068089;28;20521;-79
2024/01/04 11:54:54;;;;;;;7.20;6.03;;;9.00;99.90;;;;;;5068111;28;20486;-80
2024/01/04 11:57:23;;;;;;;6.77;5.50;;;9.10;99.90;;;;;;5055333;28;20469;-79
2024/01/04 11:59:51;;;;;;;6.60;4.67;;;9.30;99.90;;;;;;5056035;28;20461;-79
2024/01/04 12:02:20;;;;;;;7.33;5.73;;;9.40;99.90;;;;;;5055635;28;20487;-79
2024/01/04 12:04:47;;;;;;;5.40;4.60;;;9.50;99.90;;;;;;5056192;28;20542;-79
2024/01/04 12:07:14;;;;;;;4.40;3.87;;;9.60;99.90;;;;;;5055876;28;20517;-80
2024/01/04 12:09:42;;;;;;;6.27;4.00;;;9.70;99.90;;;;;;5054664;28;20455;-80
2024/01/04 12:12:09;;;;;;;5.53;3.83;;;9.70;99.90;;;;;;5055863;28;20476;-79
2024/01/04 12:14:36;;;;;;;7.00;3.47;;;9.70;99.90;;;;;;5051921;28;20498;-79
2024/01/04 12:17:05;;;;;;;3.70;3.03;;;9.60;99.90;;;;;;5052216;28;20542;-79
2024/01/04 12:19:34;;;;;;;3.87;2.60;;;9.70;99.90;;;;;;5044663;28;20452;-78
2024/01/04 12:22:00;;;;;;;4.20;2.60;;;9.40;99.90;;;;;;5053813;28;20470;-79
2024/01/04 12:24:28;;;;;;;3.13;2.30;;;9.30;99.90;;;;;;5058707;28;20453;-79
2024/01/04 12:26:55;;;;;;;2.97;2.00;;;9.30;99.90;;;;;;5058899;28;20545;-79
2024/01/04 12:29:22;;;;;;;4.43;2.50;;;9.40;99.90;;;;;;5059043;28;20456;-79
2024/01/04 12:31:51;;;;;;;4.13;2.50;;;9.40;99.90;;;;;;5058052;28;20999;-80
2024/01/04 12:34:19;;;;;;;2.83;2.57;;;9.60;99.90;;;;;;5059141;28;20491;-79
2024/01/04 12:36:46;;;;;;;2.60;2.03;;;9.60;99.90;;;;;;5059709;28;20458;-79
2024/01/04 12:39:14;;;;;;;3.77;1.70;;;9.60;99.90;;;;;;5057155;28;20466;-80
2024/01/04 12:41:44;;;;;;;5.77;2.60;;;9.60;99.90;;;;;;5054812;28;20467;-79
2024/01/04 12:44:10;;;;;;;3.77;2.17;;;9.60;99.90;;;;;;5056405;28;20454;-80
2024/01/04 12:46:39;;;;;;;2.23;1.40;;;9.60;99.90;;;;;;5057971;28;20538;-80
2024/01/04 12:49:07;;;;;;;3.70;2.53;;;9.90;99.90;;;;;;5057188;28;20490;-79
2024/01/04 12:51:38;;;;;;;4.40;2.30;;;9.80;99.90;;;;;;5050452;28;20487;-80
2024/01/04 12:54:05;;;;;;;4.90;2.20;;;9.70;99.90;;;;;;5051907;28;20496;-79
2024/01/04 12:56:33;;;;;;;2.70;2.10;;;9.70;99.90;;;;;;5047813;28;20967;-79
2024/01/04 12:59:03;;;;;;;4.27;3.23;;;9.60;99.90;;;;;;5051468;28;20455;-77